Terminal Aerodrome Forecast
Issued by NWS

Home | Current Version | Previous Version | Text Only | Print | Product List | Glossary On
Versions: 1 2 3 4 5 6 7 8 9 10 11 12 13 14 15 16
000
FTAK31 PAJN 280600 AAA
TAFAPG
TAF AMD
PAPG 280645Z 2807/2906 VRB03KT P6SM -SHRA SCT005 BKN020 OVC040
     FM281200 00000KT 6SM -SHRA BR SCT005 BKN012 OVC025
     FM281800 VRB04KT P6SM -RA SCT025 OVC050
     FM282100 06005KT P6SM -RA SCT020 BKN040 OVC060
     FM290300 VRB03KT P6SM -RA SCT020 OVC040
      AMD LTD TO CLD VIS AND WIND 2807/2815=

USA.gov is the U.S. government's official web portal to all federal, state and local government web resources and services.